Time;durP1;ratioP1;P1;durP2;ratioP2;P2;SDS_P1;SDS_P2;PMS_P1;PMS_P2;Temp;Humidity;BMP_temperature;BMP_pressure;BME280_temperature;BME280_humidity;BME280_pressure;Samples;Min_cycle;Max_cycle;Signal;HPM_P1;HPM_P2
2023/07/04 00:02:00;;;;;;;14.00;3.83;;;14.50;99.90;;;;;;5094391;28;20040;-63
2023/07/04 00:04:29;;;;;;;11.55;3.70;;;14.50;99.90;;;;;;5094648;28;20188;-63
2023/07/04 00:06:56;;;;;;;12.25;4.68;;;14.60;99.90;;;;;;5094336;28;20081;-62
2023/07/04 00:09:22;;;;;;;10.68;3.75;;;14.50;99.90;;;;;;5094665;28;20078;-62
2023/07/04 00:11:50;;;;;;;8.50;3.53;;;14.50;99.90;;;;;;5094442;28;20066;-63
2023/07/04 00:14:16;;;;;;;9.23;3.80;;;14.50;99.90;;;;;;5094900;28;20190;-62
2023/07/04 00:16:42;;;;;;;11.45;4.03;;;14.40;99.90;;;;;;5094149;28;20040;-63
2023/07/04 00:19:10;;;;;;;8.90;3.72;;;14.40;99.90;;;;;;5094497;28;20062;-63
2023/07/04 00:21:38;;;;;;;12.02;4.57;;;14.40;99.90;;;;;;5093451;28;20044;-62
2023/07/04 00:24:05;;;;;;;10.25;4.00;;;14.40;99.90;;;;;;5094413;28;20055;-64
2023/07/04 00:26:32;;;;;;;12.88;4.57;;;14.30;99.90;;;;;;5093915;28;20453;-62
2023/07/04 00:28:58;;;;;;;10.18;4.30;;;14.40;99.90;;;;;;5094434;28;20063;-64
2023/07/04 00:31:25;;;;;;;9.65;4.15;;;14.40;99.90;;;;;;5093859;28;20059;-63
2023/07/04 00:33:53;;;;;;;11.05;3.65;;;14.40;99.90;;;;;;5093829;28;20052;-63
2023/07/04 00:36:23;;;;;;;12.73;4.53;;;14.30;99.90;;;;;;5093386;28;20040;-63
2023/07/04 00:38:56;;;;;;;8.35;4.07;;;14.30;99.90;;;;;;5076424;28;20048;-62
2023/07/04 00:41:26;;;;;;;10.18;4.03;;;14.30;99.90;;;;;;5076062;28;20113;-61
2023/07/04 00:44:08;;;;;;;7.00;3.67;;;14.30;99.90;;;;;;5094346;28;20105;-62
2023/07/04 00:46:43;;;;;;;8.98;3.42;;;14.20;99.90;;;;;;5093570;28;20426;-63
2023/07/04 00:49:26;;;;;;;10.93;3.20;;;14.20;99.90;;;;;;5076412;28;20375;-62
2023/07/04 00:52:08;;;;;;;8.23;2.90;;;14.20;99.90;;;;;;5093346;28;20395;-62
2023/07/04 00:54:52;;;;;;;7.07;3.83;;;14.20;99.90;;;;;;5093446;28;20059;-61
2023/07/04 00:57:27;;;;;;;8.38;3.33;;;14.10;99.90;;;;;;5093981;28;20063;-62
2023/07/04 00:59:58;;;;;;;10.98;3.28;;;14.20;99.90;;;;;;5093805;28;20079;-62
2023/07/04 01:02:29;;;;;;;8.13;3.53;;;14.10;99.90;;;;;;5072644;28;20170;-63
2023/07/04 01:04:56;;;;;;;;;;;14.10;99.90;;;;;;5093611;28;20044;-61
2023/07/04 01:07:31;;;;;;;14.90;3.30;;;14.10;99.90;;;;;;5094012;28;20274;-62
2023/07/04 01:10:23;;;;;;;8.20;3.40;;;14.00;99.90;;;;;;5093214;28;20048;-63
2023/07/04 01:12:50;;;;;;;6.60;3.28;;;14.00;99.90;;;;;;5039688;28;20412;-62
2023/07/04 01:15:16;;;;;;;7.57;3.58;;;13.90;99.90;;;;;;5072932;28;20174;-61
2023/07/04 01:17:51;;;;;;;10.50;3.78;;;13.90;99.90;;;;;;5055195;28;20059;-62
2023/07/04 01:20:18;;;;;;;5.53;3.60;;;13.90;99.90;;;;;;5055715;28;20824;-62
2023/07/04 01:23:03;;;;;;;7.00;3.97;;;13.70;99.90;;;;;;5092619;28;20067;-62
2023/07/04 01:25:46;;;;;;;9.48;3.50;;;13.80;99.90;;;;;;5093178;28;20052;-62
2023/07/04 01:28:14;;;;;;;14.02;4.80;;;13.70;99.90;;;;;;5073221;28;20052;-62
2023/07/04 01:30:42;;;;;;;11.18;3.63;;;13.60;99.90;;;;;;5076187;28;20075;-62
2023/07/04 01:33:09;;;;;;;7.35;3.55;;;13.60;99.90;;;;;;5093547;28;20048;-63
2023/07/04 01:35:37;;;;;;;9.60;3.88;;;13.60;99.90;;;;;;5074585;28;20113;-61
2023/07/04 01:38:05;;;;;;;7.40;3.65;;;13.50;99.90;;;;;;5093204;28;20097;-63
2023/07/04 01:40:34;;;;;;;7.30;3.63;;;13.60;99.90;;;;;;5058169;28;20036;-61
2023/07/04 01:43:03;;;;;;;8.38;3.58;;;13.50;99.90;;;;;;5075808;28;20044;-63
2023/07/04 01:45:30;;;;;;;7.43;3.85;;;13.50;99.90;;;;;;5092881;28;20052;-62
2023/07/04 01:47:56;;;;;;;8.18;3.67;;;13.40;99.90;;;;;;5075281;28;20048;-62
2023/07/04 01:50:23;;;;;;;7.75;3.60;;;13.40;99.90;;;;;;5089799;28;20469;-61
2023/07/04 01:52:49;;;;;;;4.72;3.50;;;13.50;99.90;;;;;;5071852;28;20059;-62
2023/07/04 01:55:16;;;;;;;8.55;3.78;;;13.40;99.90;;;;;;5088084;28;20113;-62
2023/07/04 01:57:42;;;;;;;8.18;3.70;;;13.30;99.90;;;;;;5092890;28;20524;-61
2023/07/04 02:00:12;;;;;;;10.68;4.43;;;13.40;99.90;;;;;;5092355;28;20507;-62
2023/07/04 02:02:40;;;;;;;9.52;3.90;;;13.30;99.90;;;;;;5092941;28;20151;-63
2023/07/04 02:05:07;;;;;;;9.93;3.60;;;13.40;99.90;;;;;;5092700;28;20052;-62
2023/07/04 02:07:34;;;;;;;8.18;3.25;;;13.30;99.90;;;;;;5092972;28;20342;-62
2023/07/04 02:10:01;;;;;;;10.55;3.47;;;13.30;99.90;;;;;;5092728;28;20060;-62
2023/07/04 02:12:27;;;;;;;8.68;3.58;;;13.40;99.90;;;;;;5091698;28;20415;-61
2023/07/04 02:14:53;;;;;;;9.85;4.25;;;13.30;99.90;;;;;;5091972;28;20054;-62
2023/07/04 02:17:19;;;;;;;8.52;3.30;;;13.30;99.90;;;;;;5092331;28;20135;-62
2023/07/04 02:19:46;;;;;;;11.55;4.25;;;13.30;99.90;;;;;;5092687;28;20114;-61
2023/07/04 02:22:12;;;;;;;10.57;4.50;;;13.40;99.90;;;;;;5089408;28;20379;-62
2023/07/04 02:24:39;;;;;;;6.82;4.00;;;13.40;99.90;;;;;;5091465;28;20074;-62
2023/07/04 02:27:05;;;;;;;7.28;4.28;;;13.40;99.90;;;;;;5092392;28;20055;-63
2023/07/04 02:29:31;;;;;;;9.98;4.07;;;13.50;99.90;;;;;;5092367;28;20116;-62
2023/07/04 02:31:58;;;;;;;10.85;4.35;;;13.50;99.90;;;;;;5092272;28;20085;-63
2023/07/04 02:34:24;;;;;;;10.88;4.40;;;13.50;99.90;;;;;;5091832;28;20067;-62
2023/07/04 02:36:51;;;;;;;11.20;4.00;;;13.50;99.90;;;;;;5091604;28;20411;-62
2023/07/04 02:39:17;;;;;;;8.30;3.63;;;13.50;99.90;;;;;;5093231;28;20364;-61
2023/07/04 02:41:44;;;;;;;9.77;4.07;;;13.50;99.90;;;;;;5092168;28;20048;-62
2023/07/04 02:44:10;;;;;;;11.43;4.97;;;13.40;99.90;;;;;;5092144;28;20055;-61
2023/07/04 02:46:36;;;;;;;9.05;4.30;;;13.50;99.90;;;;;;5092174;28;20048;-61
2023/07/04 02:49:05;;;;;;;9.40;4.28;;;13.60;99.90;;;;;;5074266;28;20044;-63
2023/07/04 02:51:33;;;;;;;9.25;4.10;;;13.50;99.90;;;;;;5091399;28;20341;-61
2023/07/04 02:53:59;;;;;;;7.93;4.07;;;13.50;99.90;;;;;;5091968;28;20052;-62
2023/07/04 02:56:25;;;;;;;9.60;4.63;;;13.50;99.90;;;;;;5091848;28;20043;-62
2023/07/04 02:58:53;;;;;;;11.88;4.80;;;13.40;99.90;;;;;;5092153;28;20044;-61
2023/07/04 03:01:19;;;;;;;10.45;3.75;;;13.50;99.90;;;;;;5089897;28;20044;-62
2023/07/04 03:03:45;;;;;;;7.93;3.92;;;13.50;99.90;;;;;;5091858;28;20110;-61
2023/07/04 03:06:11;;;;;;;13.30;4.78;;;13.40;99.90;;;;;;5091996;28;20044;-62
2023/07/04 03:08:38;;;;;;;9.70;4.03;;;13.40;99.90;;;;;;5092112;28;20070;-61
2023/07/04 03:11:04;;;;;;;10.57;4.18;;;13.40;99.90;;;;;;5089572;28;20044;-62
2023/07/04 03:13:31;;;;;;;13.18;4.35;;;13.50;99.90;;;;;;5092027;28;20472;-62
2023/07/04 03:15:58;;;;;;;10.20;4.32;;;13.50;99.90;;;;;;5074118;28;20529;-62
2023/07/04 03:18:24;;;;;;;9.30;4.32;;;13.40;99.90;;;;;;5092210;28;20403;-61
2023/07/04 03:20:50;;;;;;;8.82;3.92;;;13.40;99.90;;;;;;5090830;28;20357;-62
2023/07/04 03:23:16;;;;;;;11.95;4.38;;;13.40;99.90;;;;;;5092191;28;20044;-62
2023/07/04 03:25:43;;;;;;;11.90;4.63;;;13.40;99.90;;;;;;5091860;28;20050;-62
2023/07/04 03:28:10;;;;;;;13.25;4.90;;;13.50;99.90;;;;;;5092245;28;20160;-61
2023/07/04 03:30:37;;;;;;;9.00;3.80;;;13.40;99.90;;;;;;5091347;28;20352;-63
2023/07/04 03:33:05;;;;;;;7.10;4.32;;;13.40;99.90;;;;;;5091884;28;20048;-61
2023/07/04 03:35:31;;;;;;;11.40;4.68;;;13.50;99.90;;;;;;5091100;28;20052;-61
2023/07/04 03:37:57;;;;;;;10.80;4.22;;;13.40;99.90;;;;;;5092328;28;20044;-61
2023/07/04 03:40:23;;;;;;;11.65;3.92;;;13.50;99.90;;;;;;5090159;28;20040;-61
2023/07/04 03:42:53;;;;;;;8.68;4.65;;;13.50;99.90;;;;;;5073794;28;20055;-62
2023/07/04 03:45:19;;;;;;;12.35;4.47;;;13.40;99.90;;;;;;5091053;28;20457;-62
2023/07/04 03:47:46;;;;;;;9.38;4.10;;;13.40;99.90;;;;;;5092045;28;20051;-63
2023/07/04 03:50:13;;;;;;;6.22;3.95;;;13.40;99.90;;;;;;5073260;28;20052;-60
2023/07/04 03:52:40;;;;;;;10.05;3.85;;;13.40;99.90;;;;;;5072051;28;20055;-62
2023/07/04 03:55:07;;;;;;;9.43;4.25;;;13.40;99.90;;;;;;5071716;28;20090;-62
2023/07/04 03:57:34;;;;;;;8.20;3.70;;;13.50;99.90;;;;;;5075277;28;20356;-61
2023/07/04 04:00:00;;;;;;;9.82;3.67;;;13.50;99.90;;;;;;5075330;28;20048;-61
2023/07/04 04:02:26;;;;;;;12.05;4.07;;;13.50;99.90;;;;;;5076959;28;20110;-63
2023/07/04 04:04:54;;;;;;;10.13;3.60;;;13.50;99.90;;;;;;5077305;28;20054;-61
2023/07/04 04:07:20;;;;;;;7.70;3.58;;;13.60;99.90;;;;;;5094596;28;20062;-61
2023/07/04 04:09:46;;;;;;;10.35;3.42;;;13.50;99.90;;;;;;5094729;28;20525;-61
2023/07/04 04:12:13;;;;;;;7.63;3.55;;;13.60;99.90;;;;;;5093615;28;20345;-61
2023/07/04 04:14:39;;;;;;;8.95;3.80;;;13.60;99.90;;;;;;5094854;28;20052;-63
2023/07/04 04:17:05;;;;;;;7.70;3.28;;;13.70;99.90;;;;;;5095364;28;20702;-61
2023/07/04 04:19:32;;;;;;;9.70;3.75;;;13.70;99.90;;;;;;5095060;28;20081;-62
2023/07/04 04:21:58;;;;;;;8.60;3.35;;;13.60;99.90;;;;;;5095050;28;20039;-62
2023/07/04 04:24:26;;;;;;;6.95;3.20;;;13.60;99.90;;;;;;5076730;28;20048;-62
2023/07/04 04:26:52;;;;;;;5.97;3.10;;;13.70;99.90;;;;;;5094967;28;20070;-62
2023/07/04 04:29:20;;;;;;;9.63;3.47;;;13.70;99.90;;;;;;5094930;28;20055;-62
2023/07/04 04:31:47;;;;;;;8.55;2.88;;;13.60;99.90;;;;;;5094812;28;20055;-61
2023/07/04 04:34:16;;;;;;;8.95;3.58;;;13.70;99.90;;;;;;5076686;28;20487;-62
2023/07/04 04:36:53;;;;;;;6.45;2.88;;;13.60;99.90;;;;;;5076304;28;20047;-61
2023/07/04 04:39:20;;;;;;;7.05;3.88;;;13.70;99.90;;;;;;5094422;28;20055;-62
2023/07/04 04:41:52;;;;;;;6.65;3.00;;;13.60;99.90;;;;;;5077240;28;20143;-61
2023/07/04 04:44:19;;;;;;;6.03;2.92;;;13.70;99.90;;;;;;5075169;28;20090;-61
2023/07/04 04:46:48;;;;;;;5.68;3.08;;;13.70;99.90;;;;;;5062252;28;20044;-62
2023/07/04 04:49:17;;;;;;;5.88;2.90;;;13.70;99.90;;;;;;5081754;28;20048;-62
2023/07/04 04:51:44;;;;;;;8.95;2.88;;;13.70;99.90;;;;;;5062293;28;20055;-62
2023/07/04 04:54:12;;;;;;;6.50;2.80;;;13.70;99.90;;;;;;5073866;28;20059;-63
2023/07/04 04:56:40;;;;;;;7.47;3.40;;;13.80;99.90;;;;;;5062586;28;20058;-62
2023/07/04 04:59:07;;;;;;;10.07;3.28;;;13.70;99.90;;;;;;5068163;28;20052;-61
2023/07/04 05:01:36;;;;;;;7.47;3.25;;;13.80;99.90;;;;;;5086028;28;20097;-62
2023/07/04 05:04:04;;;;;;;7.20;3.17;;;13.80;99.90;;;;;;5072951;28;20045;-62
2023/07/04 05:06:31;;;;;;;7.38;2.95;;;13.70;99.90;;;;;;5055207;28;20381;-61
2023/07/04 05:08:57;;;;;;;9.13;3.15;;;13.80;99.90;;;;;;5073539;28;20106;-61
2023/07/04 05:11:23;;;;;;;6.78;2.50;;;13.80;99.90;;;;;;5083070;28;20511;-62
2023/07/04 05:13:50;;;;;;;5.90;2.85;;;13.90;99.90;;;;;;5093830;28;20052;-61
2023/07/04 05:16:21;;;;;;;5.38;2.90;;;13.80;99.90;;;;;;5075196;28;20052;-62
2023/07/04 05:18:51;;;;;;;6.20;2.70;;;13.90;99.90;;;;;;5092921;28;20106;-61
2023/07/04 05:21:20;;;;;;;7.75;2.83;;;13.90;99.90;;;;;;5080964;28;20052;-62
2023/07/04 05:23:48;;;;;;;5.75;2.80;;;14.00;99.90;;;;;;5080812;28;20052;-62
2023/07/04 05:26:24;;;;;;;5.25;2.47;;;14.00;99.90;;;;;;5077460;28;20127;-62
2023/07/04 05:28:52;;;;;;;6.03;3.42;;;14.00;99.90;;;;;;5091478;28;20052;-62
2023/07/04 05:31:25;;;;;;;5.05;2.42;;;14.10;99.90;;;;;;5092610;28;20047;-62
2023/07/04 05:33:53;;;;;;;9.02;2.70;;;14.10;99.90;;;;;;5091703;28;20056;-61
2023/07/04 05:36:25;;;;;;;7.22;2.60;;;14.10;99.90;;;;;;5089571;28;20059;-61
2023/07/04 05:38:56;;;;;;;8.82;2.95;;;14.20;99.90;;;;;;5091875;28;20075;-62
2023/07/04 05:41:25;;;;;;;5.28;3.20;;;14.20;99.90;;;;;;5092363;28;20044;-62
2023/07/04 05:43:54;;;;;;;9.25;2.80;;;14.30;99.90;;;;;;5093700;28;20040;-63
2023/07/04 05:46:20;;;;;;;7.07;2.58;;;14.30;99.90;;;;;;5093090;28;20044;-63
2023/07/04 05:48:47;;;;;;;6.65;2.55;;;14.30;99.90;;;;;;5093735;28;20047;-62
2023/07/04 05:51:15;;;;;;;6.05;2.90;;;14.40;99.90;;;;;;5092207;28;20058;-62
2023/07/04 05:53:45;;;;;;;6.63;2.78;;;14.50;99.90;;;;;;5092509;28;20051;-62
2023/07/04 05:56:26;;;;;;;5.05;2.72;;;14.50;99.90;;;;;;5092351;28;20040;-63
2023/07/04 05:59:00;;;;;;;4.88;2.40;;;14.50;99.90;;;;;;5075162;28;20380;-63
2023/07/04 06:01:29;;;;;;;5.35;2.97;;;14.70;99.90;;;;;;5093044;28;20044;-63
2023/07/04 06:03:56;;;;;;;9.45;2.47;;;14.60;99.90;;;;;;5092428;28;20097;-63
2023/07/04 06:06:29;;;;;;;6.97;2.67;;;14.70;99.90;;;;;;5092209;28;20376;-63
2023/07/04 06:08:57;;;;;;;6.75;2.83;;;14.80;99.90;;;;;;5092777;28;20052;-63
2023/07/04 06:11:26;;;;;;;4.70;2.90;;;15.00;99.90;;;;;;5092535;28;20044;-62
2023/07/04 06:13:54;;;;;;;5.43;2.50;;;15.20;99.90;;;;;;5092554;28;20048;-63
2023/07/04 06:16:20;;;;;;;4.53;2.50;;;15.20;99.90;;;;;;5092614;28;20055;-62
2023/07/04 06:18:47;;;;;;;5.95;2.22;;;15.50;99.90;;;;;;5091784;28;20044;-62
2023/07/04 06:21:21;;;;;;;5.63;2.30;;;15.60;99.90;;;;;;5092238;28;20043;-63
2023/07/04 06:23:49;;;;;;;5.53;2.30;;;15.80;99.90;;;;;;5092209;28;20368;-63
2023/07/04 06:26:15;;;;;;;5.38;2.40;;;16.10;99.90;;;;;;5092323;28;20189;-64
2023/07/04 06:28:42;;;;;;;5.38;2.30;;;16.70;99.90;;;;;;5092596;28;20490;-64
2023/07/04 06:31:15;;;;;;;4.30;2.40;;;17.60;99.90;;;;;;5091964;28;20491;-63
2023/07/04 06:33:43;;;;;;;8.55;2.63;;;18.10;99.90;;;;;;5074419;28;20056;-63
2023/07/04 06:36:17;;;;;;;6.72;2.33;;;18.30;99.90;;;;;;5091663;28;20431;-63
2023/07/04 06:38:43;;;;;;;6.55;2.63;;;18.40;99.90;;;;;;5092124;28;20047;-63
2023/07/04 06:41:12;;;;;;;7.93;2.05;;;18.40;99.90;;;;;;5091512;28;20427;-63
2023/07/04 06:43:45;;;;;;;7.30;2.20;;;18.30;99.90;;;;;;5092029;28;20062;-64
2023/07/04 06:46:18;;;;;;;9.57;2.60;;;18.30;99.90;;;;;;5091795;28;20055;-63
2023/07/04 06:48:51;;;;;;;5.22;2.55;;;18.20;99.90;;;;;;5091958;28;20052;-64
2023/07/04 06:51:19;;;;;;;5.57;2.33;;;18.30;99.90;;;;;;5073623;28;20371;-63
2023/07/04 06:53:46;;;;;;;7.57;2.67;;;18.60;99.90;;;;;;5091967;28;20055;-63
2023/07/04 06:56:18;;;;;;;7.70;2.53;;;18.50;99.90;;;;;;5091862;28;20047;-63
2023/07/04 06:58:52;;;;;;;5.63;2.33;;;18.60;99.90;;;;;;5074382;28;20052;-64
2023/07/04 07:01:22;;;;;;;6.95;2.20;;;19.10;99.90;;;;;;5074108;28;20040;-63
2023/07/04 07:03:49;;;;;;;5.72;2.22;;;19.30;99.90;;;;;;5074550;28;20048;-63
2023/07/04 07:06:16;;;;;;;4.53;2.10;;;19.10;99.90;;;;;;5073667;28;20425;-63
2023/07/04 07:08:42;;;;;;;6.63;2.20;;;19.00;99.90;;;;;;5091686;28;20052;-62
2023/07/04 07:11:15;;;;;;;7.75;2.20;;;19.30;99.90;;;;;;5091557;28;20051;-64
2023/07/04 07:13:42;;;;;;;9.63;2.13;;;19.60;99.90;;;;;;5091779;28;20361;-63
2023/07/04 07:16:14;;;;;;;6.30;2.47;;;19.40;99.90;;;;;;5073315;28;20052;-63
2023/07/04 07:18:44;;;;;;;7.18;2.00;;;19.50;99.90;;;;;;5091493;28;20097;-63
2023/07/04 07:21:13;;;;;;;7.20;2.42;;;19.80;99.90;;;;;;5050073;28;20040;-63
2023/07/04 07:23:40;;;;;;;8.13;2.38;;;19.70;99.90;;;;;;5089733;28;20106;-63
2023/07/04 07:26:09;;;;;;;7.47;2.38;;;19.80;99.90;;;;;;5090880;28;20048;-63
2023/07/04 07:28:40;;;;;;;9.50;2.83;;;19.70;99.90;;;;;;5091130;28;20087;-63
2023/07/04 07:31:09;;;;;;;7.97;2.30;;;20.00;99.90;;;;;;5087984;28;20098;-63
2023/07/04 07:33:37;;;;;;;9.85;2.75;;;20.10;99.90;;;;;;5092783;28;20364;-63
2023/07/04 07:36:18;;;;;;;6.22;2.47;;;20.20;99.90;;;;;;5094646;28;20048;-63
2023/07/04 07:38:44;;;;;;;7.00;2.70;;;20.20;99.90;;;;;;5095289;28;20075;-63
2023/07/04 07:41:11;;;;;;;8.90;3.20;;;19.70;99.90;;;;;;5088658;28;20052;-63
2023/07/04 07:43:38;;;;;;;6.80;1.80;;;19.30;99.90;;;;;;5093483;28;20052;-64
2023/07/04 07:46:14;;;;;;;9.77;2.53;;;19.10;99.90;;;;;;5095078;28;20044;-64
2023/07/04 07:48:41;;;;;;;7.65;2.40;;;18.90;99.90;;;;;;5095284;28;20051;-64
2023/07/04 07:51:10;;;;;;;6.88;2.42;;;18.70;99.90;;;;;;5076901;28;20051;-62
2023/07/04 07:53:38;;;;;;;6.85;2.38;;;18.70;99.90;;;;;;5061129;28;20056;-63
2023/07/04 07:56:05;;;;;;;6.25;2.47;;;18.70;99.90;;;;;;5094847;28;20051;-62
2023/07/04 07:58:34;;;;;;;7.43;2.67;;;18.70;99.90;;;;;;5095329;28;20100;-62
2023/07/04 08:01:17;;;;;;;8.57;2.75;;;18.50;99.90;;;;;;5093169;28;20044;-62
2023/07/04 08:03:44;;;;;;;6.63;2.60;;;18.60;99.90;;;;;;5076821;28;20047;-63
2023/07/04 08:06:39;;;;;;;7.93;2.67;;;18.60;99.90;;;;;;5094583;28;20062;-62
2023/07/04 08:09:10;;;;;;;10.13;2.95;;;18.70;99.90;;;;;;5073984;28;20052;-63
2023/07/04 08:11:37;;;;;;;;;;;18.70;99.90;;;;;;5094664;28;20051;-64
2023/07/04 08:14:03;;;;;;;6.55;3.05;;;18.80;99.90;;;;;;5093768;28;20356;-63
2023/07/04 08:16:41;;;;;;;8.90;2.90;;;19.20;99.90;;;;;;5094501;28;20082;-63
2023/07/04 08:19:09;;;;;;;10.70;2.80;;;19.30;99.90;;;;;;5094309;28;20464;-63
2023/07/04 08:21:36;;;;;;;7.40;2.55;;;19.30;99.90;;;;;;5094149;28;20047;-62
2023/07/04 08:24:10;;;;;;;5.80;2.92;;;19.20;99.90;;;;;;5094098;28;20056;-62
2023/07/04 08:26:38;;;;;;;6.15;2.80;;;19.10;99.90;;;;;;5094937;28;20138;-63
2023/07/04 08:29:07;;;;;;;7.40;2.80;;;19.00;99.90;;;;;;5094440;28;20052;-63
2023/07/04 08:31:34;;;;;;;7.72;2.75;;;18.70;99.90;;;;;;5094082;28;20051;-62
2023/07/04 08:34:01;;;;;;;8.25;2.63;;;18.60;99.90;;;;;;5093893;28;20104;-64
2023/07/04 08:36:27;;;;;;;7.35;2.45;;;18.60;99.90;;;;;;5094083;28;20051;-62
2023/07/04 08:38:53;;;;;;;8.88;2.97;;;18.50;99.90;;;;;;5094448;28;20051;-62
2023/07/04 08:41:43;;;;;;;7.85;2.80;;;18.40;99.90;;;;;;5093052;28;20062;-62
2023/07/04 08:44:20;;;;;;;9.68;3.15;;;18.30;99.90;;;;;;5093782;28;20086;-63
2023/07/04 08:46:49;;;;;;;15.80;3.13;;;18.30;99.90;;;;;;5094343;28;20500;-62
2023/07/04 08:49:43;;;;;;;7.20;2.33;;;18.20;99.90;;;;;;5093891;28;20044;-62
2023/07/04 08:52:15;;;;;;;8.07;2.50;;;18.10;99.90;;;;;;5093814;28;20131;-62
2023/07/04 08:54:41;;;;;;;11.32;2.88;;;18.20;99.90;;;;;;5075665;28;20056;-62
2023/07/04 08:57:37;;;;;;;7.00;3.05;;;18.20;99.90;;;;;;5076000;28;20048;-63
2023/07/04 09:00:15;;;;;;;8.18;2.50;;;18.30;99.90;;;;;;5093865;28;20518;-62
2023/07/04 09:02:51;;;;;;;6.65;2.60;;;18.50;99.90;;;;;;5093196;28;20350;-62
2023/07/04 09:05:49;;;;;;;6.25;2.60;;;18.60;99.90;;;;;;5092954;28;20452;-61
2023/07/04 09:08:49;;;;;;;6.35;2.10;;;18.60;99.90;;;;;;5083996;28;20056;-62
2023/07/04 09:11:17;;;;;;;5.32;2.60;;;18.70;99.90;;;;;;5093271;28;20036;-62
2023/07/04 09:13:47;;;;;;;8.45;2.53;;;19.10;99.90;;;;;;5092703;28;20048;-62
2023/07/04 09:16:22;;;;;;;6.60;2.58;;;19.30;99.90;;;;;;5093550;28;20113;-62
2023/07/04 09:19:00;;;;;;;6.80;2.55;;;19.50;99.90;;;;;;5093411;28;20101;-63
2023/07/04 09:21:29;;;;;;;9.75;2.97;;;19.60;99.90;;;;;;5093171;28;20044;-63
2023/07/04 09:24:01;;;;;;;7.10;2.50;;;19.50;99.90;;;;;;5093005;28;20040;-62
2023/07/04 09:26:41;;;;;;;10.00;2.97;;;19.60;99.90;;;;;;5093234;28;20101;-63
2023/07/04 09:29:08;;;;;;;8.95;2.72;;;19.60;99.90;;;;;;5093152;28;20475;-62
2023/07/04 09:31:44;;;;;;;7.15;2.55;;;19.30;99.90;;;;;;5092859;28;20367;-63
2023/07/04 09:34:26;;;;;;;9.88;2.90;;;19.50;99.90;;;;;;5074593;28;20468;-62
2023/07/04 09:36:54;;;;;;;9.40;3.15;;;19.60;99.90;;;;;;5092736;28;20040;-62
2023/07/04 09:39:20;;;;;;;7.30;2.83;;;19.60;99.90;;;;;;5092676;28;20048;-62
2023/07/04 09:41:58;;;;;;;9.05;3.00;;;19.90;99.90;;;;;;5092662;28;20097;-62
2023/07/04 09:44:36;;;;;;;10.82;3.42;;;19.80;99.90;;;;;;5092338;28;20044;-62
2023/07/04 09:47:04;;;;;;;10.75;3.35;;;19.80;99.90;;;;;;5092690;28;20058;-63
2023/07/04 09:49:35;;;;;;;9.65;3.28;;;19.80;99.90;;;;;;5092616;28;20098;-61
2023/07/04 09:52:11;;;;;;;8.50;2.90;;;19.70;99.90;;;;;;5092074;28;20110;-62
2023/07/04 09:54:42;;;;;;;8.05;2.92;;;19.50;99.90;;;;;;5090938;28;20490;-62
2023/07/04 09:57:24;;;;;;;9.25;2.70;;;19.50;99.90;;;;;;5092534;28;20083;-62
2023/07/04 09:59:52;;;;;;;8.18;2.70;;;19.60;99.90;;;;;;5092283;28;20416;-62
2023/07/04 10:02:39;;;;;;;12.43;2.85;;;19.50;99.90;;;;;;5074447;28;20040;-62
2023/07/04 10:05:09;;;;;;;8.35;2.45;;;19.60;99.90;;;;;;5091594;28;20410;-62
2023/07/04 10:07:35;;;;;;;7.38;2.75;;;19.80;99.90;;;;;;5093180;28;20044;-63
2023/07/04 10:10:08;;;;;;;6.57;2.13;;;19.80;99.90;;;;;;5093269;28;20456;-62
2023/07/04 10:12:44;;;;;;;8.75;2.97;;;19.80;99.90;;;;;;5075780;28;20129;-64
2023/07/04 10:15:22;;;;;;;7.15;2.88;;;19.50;99.90;;;;;;5058434;28;20405;-63
2023/07/04 10:17:49;;;;;;;14.38;3.50;;;19.50;99.90;;;;;;5075329;28;20054;-64
2023/07/04 10:20:15;;;;;;;10.38;3.03;;;19.30;99.90;;;;;;5092797;28;20118;-62
2023/07/04 10:22:48;;;;;;;11.93;3.28;;;19.20;99.90;;;;;;5091648;28;20047;-63
2023/07/04 10:25:17;;;;;;;7.65;2.92;;;19.30;99.90;;;;;;5091739;28;20059;-62
2023/07/04 10:27:47;;;;;;;12.27;2.85;;;19.20;99.90;;;;;;5092111;28;20373;-62
2023/07/04 10:30:19;;;;;;;10.02;2.88;;;19.20;99.90;;;;;;5092693;28;20185;-62
2023/07/04 10:32:53;;;;;;;11.23;3.30;;;19.20;99.90;;;;;;5092862;28;20058;-61
2023/07/04 10:35:25;;;;;;;9.95;2.75;;;19.00;99.90;;;;;;5091930;28;20086;-63
2023/07/04 10:38:01;;;;;;;10.88;2.30;;;19.10;99.90;;;;;;5075037;28;20048;-63
2023/07/04 10:40:28;;;;;;;13.68;3.13;;;19.50;99.90;;;;;;5092334;28;20051;-63
2023/07/04 10:43:07;;;;;;;9.20;2.40;;;19.60;99.90;;;;;;5085481;28;20048;-62
2023/07/04 10:45:35;;;;;;;8.40;2.40;;;19.70;99.90;;;;;;5092778;28;20109;-64
2023/07/04 10:48:09;;;;;;;5.40;2.45;;;19.70;99.90;;;;;;5092137;28;20048;-63
2023/07/04 10:50:46;;;;;;;13.25;3.35;;;20.00;99.90;;;;;;5074512;28;20467;-62
2023/07/04 10:53:12;;;;;;;8.88;2.33;;;20.40;99.80;;;;;;5054498;28;20048;-63
2023/07/04 10:56:10;;;;;;;9.88;2.67;;;20.40;99.30;;;;;;5054116;28;20063;-63
2023/07/04 10:58:42;;;;;;;5.18;2.22;;;20.20;99.00;;;;;;5070579;28;20125;-62
2023/07/04 11:01:27;;;;;;;9.88;2.50;;;20.40;99.50;;;;;;5059078;28;20670;-63
2023/07/04 11:03:58;;;;;;;9.15;3.15;;;20.30;99.20;;;;;;5074174;28;20062;-63
2023/07/04 11:06:44;;;;;;;8.30;2.50;;;20.60;99.20;;;;;;5095317;28;20086;-63
2023/07/04 11:09:17;;;;;;;7.78;2.50;;;20.60;98.80;;;;;;5096317;28;20051;-63
2023/07/04 11:11:47;;;;;;;7.43;2.50;;;20.60;98.70;;;;;;5096299;28;20360;-62
2023/07/04 11:14:20;;;;;;;10.00;2.72;;;20.20;98.30;;;;;;5061800;28;20047;-62
2023/07/04 11:16:46;;;;;;;6.45;2.33;;;20.00;98.20;;;;;;5096118;28;20652;-64
2023/07/04 11:19:19;;;;;;;6.63;2.67;;;19.80;98.50;;;;;;5078112;28;20110;-62
2023/07/04 11:22:00;;;;;;;9.20;2.95;;;19.60;99.20;;;;;;5095645;28;20048;-62
2023/07/04 11:24:38;;;;;;;6.43;2.70;;;19.60;99.90;;;;;;5095264;28;20044;-62
2023/07/04 11:27:17;;;;;;;7.38;2.72;;;19.70;99.90;;;;;;5095948;28;20051;-63
2023/07/04 11:29:54;;;;;;;7.38;3.55;;;19.90;99.90;;;;;;5095889;28;20476;-62
2023/07/04 11:32:45;;;;;;;7.57;2.60;;;20.20;99.90;;;;;;5088995;28;20048;-62
2023/07/04 11:35:14;;;;;;;7.50;2.47;;;20.60;99.80;;;;;;5062272;28;20068;-62
2023/07/04 11:37:52;;;;;;;8.55;2.40;;;20.70;98.80;;;;;;5074684;28;20041;-63
2023/07/04 11:40:28;;;;;;;7.72;2.22;;;20.70;99.00;;;;;;5075029;28;20052;-63
2023/07/04 11:43:03;;;;;;;8.75;2.60;;;21.00;99.00;;;;;;5074505;28;20083;-62
2023/07/04 11:45:31;;;;;;;7.60;2.40;;;20.70;98.80;;;;;;5074594;28;20052;-63
2023/07/04 11:48:03;;;;;;;9.90;2.63;;;20.60;98.50;;;;;;5075376;28;20109;-63
2023/07/04 11:50:33;;;;;;;6.82;2.40;;;20.40;98.40;;;;;;5075004;28;20052;-63
2023/07/04 11:53:03;;;;;;;8.38;2.40;;;20.30;98.80;;;;;;5074626;28;20114;-63
2023/07/04 11:55:34;;;;;;;5.90;2.40;;;20.20;98.30;;;;;;5074274;28;20052;-63
2023/07/04 11:58:13;;;;;;;6.57;2.20;;;20.20;98.60;;;;;;5074981;28;20122;-62
2023/07/04 12:00:39;;;;;;;6.53;2.15;;;20.20;98.40;;;;;;5056656;28;20056;-63
2023/07/04 12:03:18;;;;;;;5.38;2.40;;;20.30;98.70;;;;;;5074806;28;20350;-63
2023/07/04 12:05:51;;;;;;;5.25;2.10;;;20.20;98.30;;;;;;5074562;28;20049;-62
2023/07/04 12:08:45;;;;;;;7.35;2.58;;;20.30;98.50;;;;;;5074748;28;20055;-62
2023/07/04 12:11:19;;;;;;;9.50;2.75;;;20.40;98.30;;;;;;5039873;28;20052;-63
2023/07/04 12:13:49;;;;;;;9.77;3.53;;;20.40;98.20;;;;;;5074165;28;20049;-63
2023/07/04 12:16:21;;;;;;;7.00;2.72;;;20.40;98.20;;;;;;5073540;28;20415;-63
2023/07/04 12:18:47;;;;;;;7.95;2.55;;;20.00;98.30;;;;;;5039786;28;20052;-63
2023/07/04 12:21:18;;;;;;;8.45;2.50;;;20.00;99.10;;;;;;5039305;28;20041;-62
2023/07/04 12:23:46;;;;;;;8.20;2.40;;;20.00;99.30;;;;;;5073621;28;20056;-62
2023/07/04 12:26:21;;;;;;;9.75;3.00;;;20.00;99.20;;;;;;5073832;28;20501;-63
2023/07/04 12:28:48;;;;;;;10.52;3.30;;;19.90;99.40;;;;;;5056831;28;20058;-63
2023/07/04 12:31:15;;;;;;;9.77;3.13;;;19.90;99.90;;;;;;5073801;28;20044;-63
2023/07/04 12:33:44;;;;;;;12.82;3.30;;;19.70;99.60;;;;;;5058898;28;20473;-62
2023/07/04 12:36:16;;;;;;;8.40;3.10;;;19.70;99.90;;;;;;5094042;28;20106;-61
2023/07/04 12:38:47;;;;;;;;;;;19.60;99.80;;;;;;5094612;28;20048;-62
2023/07/04 12:41:22;;;;;;;14.65;3.38;;;19.70;99.90;;;;;;5094139;28;19990;-62
2023/07/04 12:43:56;;;;;;;7.63;3.15;;;19.90;99.90;;;;;;5076194;28;20052;-62
2023/07/04 12:46:24;;;;;;;13.00;2.80;;;20.20;99.90;;;;;;5094250;28;20475;-62
2023/07/04 12:48:51;;;;;;;9.90;2.83;;;20.30;99.90;;;;;;5094312;28;20331;-62
2023/07/04 12:51:21;;;;;;;7.90;2.60;;;20.40;99.80;;;;;;5076170;28;20051;-61
2023/07/04 12:53:47;;;;;;;9.48;2.90;;;20.40;99.70;;;;;;5093657;28;20082;-61
2023/07/04 12:56:15;;;;;;;11.63;3.05;;;20.40;99.90;;;;;;5094020;28;20043;-62
2023/07/04 12:58:44;;;;;;;7.13;2.38;;;20.50;99.90;;;;;;5093802;28;20101;-62
2023/07/04 13:01:13;;;;;;;8.32;3.63;;;20.50;99.90;;;;;;5089977;28;20041;-63
2023/07/04 13:03:43;;;;;;;9.48;2.88;;;20.40;99.90;;;;;;5092219;28;20044;-63